sensor_id;sensor_type;location;lat;lon;timestamp;P1;durP1;ratioP1;P2;durP2;ratioP2
18818;SDS011;9537;45.594;9.294;2024-02-14T00:00:44;16.47;;;11.13;;
18818;SDS011;9537;45.594;9.294;2024-02-14T00:01:44;15.77;;;10.33;;
18818;SDS011;9537;45.594;9.294;2024-02-14T00:02:45;16.00;;;11.07;;
18818;SDS011;9537;45.594;9.294;2024-02-14T00:03:49;16.10;;;11.17;;
18818;SDS011;9537;45.594;9.294;2024-02-14T00:04:50;17.43;;;10.83;;
18818;SDS011;9537;45.594;9.294;2024-02-14T00:05:50;15.00;;;10.23;;
18818;SDS011;9537;45.594;9.294;2024-02-14T00:06:52;17.73;;;11.30;;
18818;SDS011;9537;45.594;9.294;2024-02-14T00:07:55;17.50;;;10.53;;
18818;SDS011;9537;45.594;9.294;2024-02-14T00:08:56;14.43;;;10.80;;
18818;SDS011;9537;45.594;9.294;2024-02-14T00:09:57;14.83;;;11.10;;
18818;SDS011;9537;45.594;9.294;2024-02-14T00:10:58;16.70;;;10.60;;
18818;SDS011;9537;45.594;9.294;2024-02-14T00:12:00;15.50;;;10.23;;
18818;SDS011;9537;45.594;9.294;2024-02-14T00:13:01;17.33;;;11.13;;
18818;SDS011;9537;45.594;9.294;2024-02-14T00:14:04;18.50;;;12.40;;
18818;SDS011;9537;45.594;9.294;2024-02-14T00:15:05;20.30;;;12.47;;
18818;SDS011;9537;45.594;9.294;2024-02-14T00:16:07;18.40;;;11.73;;
18818;SDS011;9537;45.594;9.294;2024-02-14T00:17:08;19.67;;;12.70;;
18818;SDS011;9537;45.594;9.294;2024-02-14T00:18:10;18.70;;;13.40;;
18818;SDS011;9537;45.594;9.294;2024-02-14T00:19:12;19.60;;;12.80;;
18818;SDS011;9537;45.594;9.294;2024-02-14T00:20:14;23.27;;;12.77;;
18818;SDS011;9537;45.594;9.294;2024-02-14T00:21:16;21.97;;;13.30;;
18818;SDS011;9537;45.594;9.294;2024-02-14T00:22:16;17.57;;;11.77;;
18818;SDS011;9537;45.594;9.294;2024-02-14T00:23:20;15.60;;;11.73;;
18818;SDS011;9537;45.594;9.294;2024-02-14T00:24:21;17.47;;;11.07;;
18818;SDS011;9537;45.594;9.294;2024-02-14T00:25:22;19.67;;;11.57;;
18818;SDS011;9537;45.594;9.294;2024-02-14T00:26:24;18.77;;;11.43;;
18818;SDS011;9537;45.594;9.294;2024-02-14T00:27:25;16.97;;;11.73;;
18818;SDS011;9537;45.594;9.294;2024-02-14T00:28:27;18.60;;;11.43;;
18818;SDS011;9537;45.594;9.294;2024-02-14T00:29:28;16.60;;;10.93;;
18818;SDS011;9537;45.594;9.294;2024-02-14T00:30:28;15.87;;;10.90;;
18818;SDS011;9537;45.594;9.294;2024-02-14T00:31:30;18.53;;;11.20;;
18818;SDS011;9537;45.594;9.294;2024-02-14T00:32:31;16.13;;;11.60;;
18818;SDS011;9537;45.594;9.294;2024-02-14T00:33:33;18.43;;;11.37;;
18818;SDS011;9537;45.594;9.294;2024-02-14T00:34:34;19.23;;;11.83;;
18818;SDS011;9537;45.594;9.294;2024-02-14T00:35:36;23.03;;;11.77;;
18818;SDS011;9537;45.594;9.294;2024-02-14T00:36:37;17.83;;;11.33;;
18818;SDS011;9537;45.594;9.294;2024-02-14T00:37:37;17.07;;;11.17;;
18818;SDS011;9537;45.594;9.294;2024-02-14T00:38:41;18.10;;;11.50;;
18818;SDS011;9537;45.594;9.294;2024-02-14T00:39:41;17.50;;;11.67;;
18818;SDS011;9537;45.594;9.294;2024-02-14T00:40:43;15.40;;;11.40;;
18818;SDS011;9537;45.594;9.294;2024-02-14T00:41:45;17.07;;;11.03;;
18818;SDS011;9537;45.594;9.294;2024-02-14T00:42:47;19.80;;;12.17;;
18818;SDS011;9537;45.594;9.294;2024-02-14T00:43:48;18.60;;;12.40;;
18818;SDS011;9537;45.594;9.294;2024-02-14T00:44:50;17.90;;;11.23;;
18818;SDS011;9537;45.594;9.294;2024-02-14T00:45:51;15.97;;;11.33;;
18818;SDS011;9537;45.594;9.294;2024-02-14T00:46:56;15.57;;;11.20;;
18818;SDS011;9537;45.594;9.294;2024-02-14T00:47:59;15.30;;;11.20;;
18818;SDS011;9537;45.594;9.294;2024-02-14T00:49:01;16.50;;;11.10;;
18818;SDS011;9537;45.594;9.294;2024-02-14T00:50:03;20.03;;;12.17;;
18818;SDS011;9537;45.594;9.294;2024-02-14T00:51:04;18.40;;;11.73;;
18818;SDS011;9537;45.594;9.294;2024-02-14T00:52:07;17.47;;;11.70;;
18818;SDS011;9537;45.594;9.294;2024-02-14T00:53:09;19.63;;;11.53;;
18818;SDS011;9537;45.594;9.294;2024-02-14T00:54:12;15.90;;;11.77;;
18818;SDS011;9537;45.594;9.294;2024-02-14T00:55:13;17.50;;;12.57;;
18818;SDS011;9537;45.594;9.294;2024-02-14T00:56:15;16.50;;;12.27;;
18818;SDS011;9537;45.594;9.294;2024-02-14T00:57:15;19.67;;;11.47;;
18818;SDS011;9537;45.594;9.294;2024-02-14T00:58:18;18.90;;;11.80;;
18818;SDS011;9537;45.594;9.294;2024-02-14T00:59:18;18.07;;;11.57;;
18818;SDS011;9537;45.594;9.294;2024-02-14T01:00:20;18.03;;;11.30;;
18818;SDS011;9537;45.594;9.294;2024-02-14T01:01:21;17.57;;;11.37;;
18818;SDS011;9537;45.594;9.294;2024-02-14T01:02:23;16.97;;;11.37;;
18818;SDS011;9537;45.594;9.294;2024-02-14T01:03:24;18.03;;;11.50;;
18818;SDS011;9537;45.594;9.294;2024-02-14T01:04:25;20.90;;;12.53;;
18818;SDS011;9537;45.594;9.294;2024-02-14T01:05:26;18.77;;;11.53;;
18818;SDS011;9537;45.594;9.294;2024-02-14T01:06:27;19.53;;;12.30;;
18818;SDS011;9537;45.594;9.294;2024-02-14T01:07:31;20.40;;;12.13;;
18818;SDS011;9537;45.594;9.294;2024-02-14T01:08:31;17.93;;;11.83;;
18818;SDS011;9537;45.594;9.294;2024-02-14T01:09:35;17.90;;;11.97;;
18818;SDS011;9537;45.594;9.294;2024-02-14T01:10:36;19.73;;;11.33;;
18818;SDS011;9537;45.594;9.294;2024-02-14T01:11:37;19.43;;;12.63;;
18818;SDS011;9537;45.594;9.294;2024-02-14T01:12:39;15.93;;;11.27;;
18818;SDS011;9537;45.594;9.294;2024-02-14T01:13:40;19.43;;;11.63;;
18818;SDS011;9537;45.594;9.294;2024-02-14T01:14:42;21.27;;;11.70;;
18818;SDS011;9537;45.594;9.294;2024-02-14T01:15:43;22.63;;;11.53;;
18818;SDS011;9537;45.594;9.294;2024-02-14T01:16:45;18.17;;;11.50;;
18818;SDS011;9537;45.594;9.294;2024-02-14T01:17:46;17.43;;;10.70;;
18818;SDS011;9537;45.594;9.294;2024-02-14T01:18:48;18.53;;;11.50;;
18818;SDS011;9537;45.594;9.294;2024-02-14T01:19:49;16.20;;;11.43;;
18818;SDS011;9537;45.594;9.294;2024-02-14T01:20:51;17.43;;;11.27;;
18818;SDS011;9537;45.594;9.294;2024-02-14T01:21:53;19.13;;;11.73;;
18818;SDS011;9537;45.594;9.294;2024-02-14T01:22:57;15.90;;;10.97;;
18818;SDS011;9537;45.594;9.294;2024-02-14T01:23:57;21.77;;;12.13;;
18818;SDS011;9537;45.594;9.294;2024-02-14T01:25:00;15.97;;;11.07;;
18818;SDS011;9537;45.594;9.294;2024-02-14T01:26:01;16.90;;;10.60;;
18818;SDS011;9537;45.594;9.294;2024-02-14T01:27:03;19.60;;;11.23;;
18818;SDS011;9537;45.594;9.294;2024-02-14T01:28:05;15.70;;;11.50;;
18818;SDS011;9537;45.594;9.294;2024-02-14T01:29:08;18.70;;;11.77;;
18818;SDS011;9537;45.594;9.294;2024-02-14T01:30:10;17.93;;;11.40;;
18818;SDS011;9537;45.594;9.294;2024-02-14T01:31:12;15.97;;;10.43;;
18818;SDS011;9537;45.594;9.294;2024-02-14T01:32:13;20.87;;;10.87;;
18818;SDS011;9537;45.594;9.294;2024-02-14T01:33:15;17.77;;;10.83;;
18818;SDS011;9537;45.594;9.294;2024-02-14T01:34:16;18.20;;;10.60;;
18818;SDS011;9537;45.594;9.294;2024-02-14T01:35:18;16.87;;;11.37;;
18818;SDS011;9537;45.594;9.294;2024-02-14T01:36:19;17.53;;;11.07;;
18818;SDS011;9537;45.594;9.294;2024-02-14T01:37:21;19.30;;;10.93;;
18818;SDS011;9537;45.594;9.294;2024-02-14T01:38:22;14.13;;;10.17;;
18818;SDS011;9537;45.594;9.294;2024-02-14T01:39:24;17.50;;;10.80;;
18818;SDS011;9537;45.594;9.294;2024-02-14T01:40:26;16.00;;;10.70;;
18818;SDS011;9537;45.594;9.294;2024-02-14T01:41:26;19.47;;;11.00;;
18818;SDS011;9537;45.594;9.294;2024-02-14T01:42:28;16.27;;;10.53;;
18818;SDS011;9537;45.594;9.294;2024-02-14T01:43:29;20.20;;;11.53;;
18818;SDS011;9537;45.594;9.294;2024-02-14T01:44:30;18.20;;;11.63;;
18818;SDS011;9537;45.594;9.294;2024-02-14T01:45:32;17.93;;;11.27;;
18818;SDS011;9537;45.594;9.294;2024-02-14T01:46:33;16.70;;;11.77;;
18818;SDS011;9537;45.594;9.294;2024-02-14T01:47:35;17.87;;;10.80;;
18818;SDS011;9537;45.594;9.294;2024-02-14T01:48:36;15.77;;;10.97;;
18818;SDS011;9537;45.594;9.294;2024-02-14T01:49:39;15.80;;;10.73;;
18818;SDS011;9537;45.594;9.294;2024-02-14T01:50:44;19.07;;;12.50;;
18818;SDS011;9537;45.594;9.294;2024-02-14T01:51:46;16.43;;;10.53;;
18818;SDS011;9537;45.594;9.294;2024-02-14T01:52:48;13.67;;;9.83;;
18818;SDS011;9537;45.594;9.294;2024-02-14T01:53:48;18.13;;;11.33;;
18818;SDS011;9537;45.594;9.294;2024-02-14T01:54:51;15.90;;;10.53;;
18818;SDS011;9537;45.594;9.294;2024-02-14T01:55:54;14.67;;;10.77;;
18818;SDS011;9537;45.594;9.294;2024-02-14T01:56:56;16.70;;;10.53;;
18818;SDS011;9537;45.594;9.294;2024-02-14T01:57:58;15.77;;;10.23;;
18818;SDS011;9537;45.594;9.294;2024-02-14T01:59:00;13.93;;;11.00;;
18818;SDS011;9537;45.594;9.294;2024-02-14T02:00:03;17.27;;;10.20;;
18818;SDS011;9537;45.594;9.294;2024-02-14T02:01:08;19.33;;;11.17;;
18818;SDS011;9537;45.594;9.294;2024-02-14T02:02:10;18.27;;;11.23;;
18818;SDS011;9537;45.594;9.294;2024-02-14T02:03:11;18.53;;;10.53;;
18818;SDS011;9537;45.594;9.294;2024-02-14T02:04:14;15.80;;;11.33;;
18818;SDS011;9537;45.594;9.294;2024-02-14T02:05:15;14.83;;;10.43;;
18818;SDS011;9537;45.594;9.294;2024-02-14T02:06:17;17.83;;;10.70;;
18818;SDS011;9537;45.594;9.294;2024-02-14T02:07:18;17.37;;;10.27;;
18818;SDS011;9537;45.594;9.294;2024-02-14T02:08:20;14.73;;;10.33;;
18818;SDS011;9537;45.594;9.294;2024-02-14T02:09:21;16.30;;;10.63;;
18818;SDS011;9537;45.594;9.294;2024-02-14T02:10:23;19.43;;;11.87;;
18818;SDS011;9537;45.594;9.294;2024-02-14T02:11:27;17.77;;;10.83;;
18818;SDS011;9537;45.594;9.294;2024-02-14T02:12:29;15.00;;;10.60;;
18818;SDS011;9537;45.594;9.294;2024-02-14T02:13:29;17.20;;;10.70;;
18818;SDS011;9537;45.594;9.294;2024-02-14T02:14:31;13.53;;;10.30;;
18818;SDS011;9537;45.594;9.294;2024-02-14T02:15:32;16.87;;;11.00;;
18818;SDS011;9537;45.594;9.294;2024-02-14T02:16:34;16.63;;;11.57;;
18818;SDS011;9537;45.594;9.294;2024-02-14T02:17:34;16.30;;;10.87;;
18818;SDS011;9537;45.594;9.294;2024-02-14T02:18:35;17.53;;;10.67;;
18818;SDS011;9537;45.594;9.294;2024-02-14T02:19:37;15.73;;;11.27;;
18818;SDS011;9537;45.594;9.294;2024-02-14T02:20:38;16.00;;;11.00;;
18818;SDS011;9537;45.594;9.294;2024-02-14T02:21:42;17.77;;;10.87;;
18818;SDS011;9537;45.594;9.294;2024-02-14T02:22:46;12.93;;;10.30;;
18818;SDS011;9537;45.594;9.294;2024-02-14T02:23:47;14.93;;;11.03;;
18818;SDS011;9537;45.594;9.294;2024-02-14T02:24:49;16.20;;;10.77;;
18818;SDS011;9537;45.594;9.294;2024-02-14T02:25:51;18.03;;;10.73;;
18818;SDS011;9537;45.594;9.294;2024-02-14T02:26:52;15.80;;;10.70;;
18818;SDS011;9537;45.594;9.294;2024-02-14T02:27:53;15.90;;;10.70;;
18818;SDS011;9537;45.594;9.294;2024-02-14T02:28:56;15.03;;;10.93;;
18818;SDS011;9537;45.594;9.294;2024-02-14T02:29:57;16.27;;;11.47;;
18818;SDS011;9537;45.594;9.294;2024-02-14T02:31:01;17.97;;;10.27;;
18818;SDS011;9537;45.594;9.294;2024-02-14T02:32:02;15.83;;;10.70;;
18818;SDS011;9537;45.594;9.294;2024-02-14T02:33:05;17.87;;;10.83;;
18818;SDS011;9537;45.594;9.294;2024-02-14T02:34:07;13.80;;;10.80;;
18818;SDS011;9537;45.594;9.294;2024-02-14T02:35:10;14.20;;;11.03;;
18818;SDS011;9537;45.594;9.294;2024-02-14T02:36:11;15.33;;;10.57;;
18818;SDS011;9537;45.594;9.294;2024-02-14T02:37:13;14.87;;;10.73;;
18818;SDS011;9537;45.594;9.294;2024-02-14T02:38:15;16.60;;;11.50;;
18818;SDS011;9537;45.594;9.294;2024-02-14T02:39:17;16.40;;;10.87;;
18818;SDS011;9537;45.594;9.294;2024-02-14T02:40:18;14.93;;;10.17;;
18818;SDS011;9537;45.594;9.294;2024-02-14T02:41:21;15.97;;;10.33;;
18818;SDS011;9537;45.594;9.294;2024-02-14T02:42:22;16.80;;;11.17;;
18818;SDS011;9537;45.594;9.294;2024-02-14T02:43:24;14.30;;;11.27;;
18818;SDS011;9537;45.594;9.294;2024-02-14T02:44:24;17.80;;;11.83;;
18818;SDS011;9537;45.594;9.294;2024-02-14T02:45:26;16.27;;;10.90;;
18818;SDS011;9537;45.594;9.294;2024-02-14T02:46:28;17.37;;;11.13;;
18818;SDS011;9537;45.594;9.294;2024-02-14T02:47:29;14.23;;;11.20;;
18818;SDS011;9537;45.594;9.294;2024-02-14T02:48:31;14.93;;;10.53;;
18818;SDS011;9537;45.594;9.294;2024-02-14T02:49:32;13.73;;;10.10;;
18818;SDS011;9537;45.594;9.294;2024-02-14T02:50:34;17.77;;;11.60;;
18818;SDS011;9537;45.594;9.294;2024-02-14T02:51:34;14.93;;;10.33;;
18818;SDS011;9537;45.594;9.294;2024-02-14T02:52:36;15.20;;;10.80;;
18818;SDS011;9537;45.594;9.294;2024-02-14T02:53:39;16.60;;;10.40;;
18818;SDS011;9537;45.594;9.294;2024-02-14T02:54:41;15.30;;;10.80;;
18818;SDS011;9537;45.594;9.294;2024-02-14T02:55:43;17.00;;;11.70;;
18818;SDS011;9537;45.594;9.294;2024-02-14T02:56:46;17.33;;;10.87;;
18818;SDS011;9537;45.594;9.294;2024-02-14T02:57:46;17.27;;;11.13;;
18818;SDS011;9537;45.594;9.294;2024-02-14T02:58:48;16.10;;;10.70;;
18818;SDS011;9537;45.594;9.294;2024-02-14T02:59:49;15.03;;;10.20;;
18818;SDS011;9537;45.594;9.294;2024-02-14T03:00:49;17.40;;;10.53;;
18818;SDS011;9537;45.594;9.294;2024-02-14T03:01:51;16.63;;;10.43;;
18818;SDS011;9537;45.594;9.294;2024-02-14T03:02:52;17.37;;;10.43;;
18818;SDS011;9537;45.594;9.294;2024-02-14T03:03:54;14.90;;;10.63;;
18818;SDS011;9537;45.594;9.294;2024-02-14T03:04:55;15.93;;;10.20;;
18818;SDS011;9537;45.594;9.294;2024-02-14T03:05:57;18.77;;;10.97;;
18818;SDS011;9537;45.594;9.294;2024-02-14T03:06:57;16.90;;;10.10;;
18818;SDS011;9537;45.594;9.294;2024-02-14T03:08:00;18.00;;;10.43;;
18818;SDS011;9537;45.594;9.294;2024-02-14T03:09:02;16.60;;;9.67;;
18818;SDS011;9537;45.594;9.294;2024-02-14T03:10:06;14.83;;;10.07;;
18818;SDS011;9537;45.594;9.294;2024-02-14T03:11:07;12.80;;;9.20;;
18818;SDS011;9537;45.594;9.294;2024-02-14T03:12:09;14.53;;;10.47;;
18818;SDS011;9537;45.594;9.294;2024-02-14T03:13:10;18.07;;;9.87;;
18818;SDS011;9537;45.594;9.294;2024-02-14T03:14:12;15.63;;;10.30;;
18818;SDS011;9537;45.594;9.294;2024-02-14T03:15:13;13.33;;;10.00;;
18818;SDS011;9537;45.594;9.294;2024-02-14T03:16:15;16.03;;;10.20;;
18818;SDS011;9537;45.594;9.294;2024-02-14T03:17:17;17.23;;;10.17;;
18818;SDS011;9537;45.594;9.294;2024-02-14T03:18:19;15.90;;;9.37;;
18818;SDS011;9537;45.594;9.294;2024-02-14T03:19:19;16.97;;;9.77;;
18818;SDS011;9537;45.594;9.294;2024-02-14T03:20:22;15.03;;;10.30;;
18818;SDS011;9537;45.594;9.294;2024-02-14T03:21:23;15.07;;;9.93;;
18818;SDS011;9537;45.594;9.294;2024-02-14T03:22:24;16.70;;;10.20;;
18818;SDS011;9537;45.594;9.294;2024-02-14T03:23:26;15.00;;;10.00;;
18818;SDS011;9537;45.594;9.294;2024-02-14T03:24:29;14.07;;;9.80;;
18818;SDS011;9537;45.594;9.294;2024-02-14T03:25:30;13.30;;;9.43;;
18818;SDS011;9537;45.594;9.294;2024-02-14T03:26:31;16.23;;;9.80;;
18818;SDS011;9537;45.594;9.294;2024-02-14T03:27:33;18.27;;;10.80;;
18818;SDS011;9537;45.594;9.294;2024-02-14T03:28:35;15.30;;;9.60;;
18818;SDS011;9537;45.594;9.294;2024-02-14T03:29:36;16.47;;;9.43;;
18818;SDS011;9537;45.594;9.294;2024-02-14T03:30:39;13.50;;;9.13;;
18818;SDS011;9537;45.594;9.294;2024-02-14T03:31:39;15.87;;;10.13;;
18818;SDS011;9537;45.594;9.294;2024-02-14T03:32:43;17.70;;;9.67;;
18818;SDS011;9537;45.594;9.294;2024-02-14T03:33:44;13.63;;;9.53;;
18818;SDS011;9537;45.594;9.294;2024-02-14T03:34:46;16.60;;;9.13;;
18818;SDS011;9537;45.594;9.294;2024-02-14T03:35:47;12.83;;;8.93;;
18818;SDS011;9537;45.594;9.294;2024-02-14T03:36:48;13.47;;;9.63;;
18818;SDS011;9537;45.594;9.294;2024-02-14T03:37:50;14.23;;;10.10;;
18818;SDS011;9537;45.594;9.294;2024-02-14T03:38:53;15.27;;;9.57;;
18818;SDS011;9537;45.594;9.294;2024-02-14T03:39:55;13.57;;;9.67;;
18818;SDS011;9537;45.594;9.294;2024-02-14T03:40:57;12.27;;;9.37;;
18818;SDS011;9537;45.594;9.294;2024-02-14T03:41:58;14.27;;;9.20;;
18818;SDS011;9537;45.594;9.294;2024-02-14T03:43:02;14.30;;;9.13;;
18818;SDS011;9537;45.594;9.294;2024-02-14T03:44:03;14.87;;;9.27;;
18818;SDS011;9537;45.594;9.294;2024-02-14T03:45:07;18.73;;;10.40;;
18818;SDS011;9537;45.594;9.294;2024-02-14T03:46:08;15.87;;;9.73;;
18818;SDS011;9537;45.594;9.294;2024-02-14T03:47:12;12.10;;;9.37;;
18818;SDS011;9537;45.594;9.294;2024-02-14T03:48:13;16.63;;;9.60;;
18818;SDS011;9537;45.594;9.294;2024-02-14T03:49:15;14.53;;;9.77;;
18818;SDS011;9537;45.594;9.294;2024-02-14T03:50:17;14.67;;;10.40;;
18818;SDS011;9537;45.594;9.294;2024-02-14T03:51:17;15.53;;;9.87;;
18818;SDS011;9537;45.594;9.294;2024-02-14T03:52:19;15.43;;;10.03;;
18818;SDS011;9537;45.594;9.294;2024-02-14T03:53:22;15.57;;;9.47;;
18818;SDS011;9537;45.594;9.294;2024-02-14T03:54:24;15.87;;;9.50;;
18818;SDS011;9537;45.594;9.294;2024-02-14T03:55:26;13.83;;;9.40;;
18818;SDS011;9537;45.594;9.294;2024-02-14T03:56:28;14.03;;;9.70;;
18818;SDS011;9537;45.594;9.294;2024-02-14T03:57:30;17.10;;;10.70;;
18818;SDS011;9537;45.594;9.294;2024-02-14T03:58:33;14.33;;;9.57;;
18818;SDS011;9537;45.594;9.294;2024-02-14T03:59:37;16.30;;;9.73;;
18818;SDS011;9537;45.594;9.294;2024-02-14T04:00:40;13.33;;;9.00;;
18818;SDS011;9537;45.594;9.294;2024-02-14T04:01:43;16.20;;;9.67;;
18818;SDS011;9537;45.594;9.294;2024-02-14T04:02:45;14.37;;;9.23;;
18818;SDS011;9537;45.594;9.294;2024-02-14T04:03:48;13.87;;;9.87;;
18818;SDS011;9537;45.594;9.294;2024-02-14T04:04:50;12.60;;;9.20;;
18818;SDS011;9537;45.594;9.294;2024-02-14T04:05:51;13.10;;;9.67;;
18818;SDS011;9537;45.594;9.294;2024-02-14T04:06:53;14.63;;;10.00;;
18818;SDS011;9537;45.594;9.294;2024-02-14T04:07:53;12.80;;;9.67;;
18818;SDS011;9537;45.594;9.294;2024-02-14T04:08:55;13.90;;;9.87;;
18818;SDS011;9537;45.594;9.294;2024-02-14T04:09:56;16.47;;;9.97;;
18818;SDS011;9537;45.594;9.294;2024-02-14T04:10:59;19.17;;;10.00;;
18818;SDS011;9537;45.594;9.294;2024-02-14T04:12:00;12.70;;;9.33;;
18818;SDS011;9537;45.594;9.294;2024-02-14T04:13:03;13.07;;;9.37;;
18818;SDS011;9537;45.594;9.294;2024-02-14T04:14:04;14.17;;;9.47;;
18818;SDS011;9537;45.594;9.294;2024-02-14T04:15:07;12.33;;;9.30;;
18818;SDS011;9537;45.594;9.294;2024-02-14T04:16:09;20.07;;;9.97;;
18818;SDS011;9537;45.594;9.294;2024-02-14T04:17:11;14.50;;;10.10;;
18818;SDS011;9537;45.594;9.294;2024-02-14T04:18:12;14.40;;;8.97;;
18818;SDS011;9537;45.594;9.294;2024-02-14T04:19:14;14.47;;;9.53;;
18818;SDS011;9537;45.594;9.294;2024-02-14T04:20:17;12.57;;;9.13;;
18818;SDS011;9537;45.594;9.294;2024-02-14T04:21:18;17.03;;;9.97;;
18818;SDS011;9537;45.594;9.294;2024-02-14T04:22:19;14.50;;;8.83;;
18818;SDS011;9537;45.594;9.294;2024-02-14T04:23:21;14.60;;;9.60;;
18818;SDS011;9537;45.594;9.294;2024-02-14T04:24:24;14.73;;;9.40;;
18818;SDS011;9537;45.594;9.294;2024-02-14T04:25:25;17.37;;;9.60;;
18818;SDS011;9537;45.594;9.294;2024-02-14T04:26:29;16.53;;;9.30;;
18818;SDS011;9537;45.594;9.294;2024-02-14T04:27:29;14.43;;;9.53;;
18818;SDS011;9537;45.594;9.294;2024-02-14T04:28:30;14.00;;;10.03;;
18818;SDS011;9537;45.594;9.294;2024-02-14T04:29:32;13.07;;;8.60;;
18818;SDS011;9537;45.594;9.294;2024-02-14T04:30:33;16.20;;;10.03;;
18818;SDS011;9537;45.594;9.294;2024-02-14T04:31:36;14.50;;;9.17;;
18818;SDS011;9537;45.594;9.294;2024-02-14T04:32:37;15.50;;;9.90;;
18818;SDS011;9537;45.594;9.294;2024-02-14T04:33:39;11.33;;;9.00;;
18818;SDS011;9537;45.594;9.294;2024-02-14T04:34:40;13.90;;;9.43;;
18818;SDS011;9537;45.594;9.294;2024-02-14T04:35:43;15.47;;;10.00;;
18818;SDS011;9537;45.594;9.294;2024-02-14T04:36:44;13.80;;;9.43;;
18818;SDS011;9537;45.594;9.294;2024-02-14T04:37:46;16.73;;;9.40;;
18818;SDS011;9537;45.594;9.294;2024-02-14T04:38:48;13.90;;;9.63;;
18818;SDS011;9537;45.594;9.294;2024-02-14T04:39:52;17.57;;;9.30;;
18818;SDS011;9537;45.594;9.294;2024-02-14T04:40:53;14.07;;;9.07;;
18818;SDS011;9537;45.594;9.294;2024-02-14T04:41:58;13.93;;;8.87;;
18818;SDS011;9537;45.594;9.294;2024-02-14T04:42:59;12.93;;;7.97;;
18818;SDS011;9537;45.594;9.294;2024-02-14T04:44:00;11.37;;;7.97;;
18818;SDS011;9537;45.594;9.294;2024-02-14T04:45:01;11.73;;;8.13;;
18818;SDS011;9537;45.594;9.294;2024-02-14T04:46:06;12.17;;;8.37;;
18818;SDS011;9537;45.594;9.294;2024-02-14T04:47:08;12.80;;;9.23;;
18818;SDS011;9537;45.594;9.294;2024-02-14T04:48:10;14.13;;;8.60;;
18818;SDS011;9537;45.594;9.294;2024-02-14T04:49:11;11.53;;;8.10;;
18818;SDS011;9537;45.594;9.294;2024-02-14T04:50:15;13.77;;;8.73;;
18818;SDS011;9537;45.594;9.294;2024-02-14T04:51:15;13.57;;;8.33;;
18818;SDS011;9537;45.594;9.294;2024-02-14T04:52:17;15.33;;;8.30;;
18818;SDS011;9537;45.594;9.294;2024-02-14T04:53:18;11.33;;;8.63;;
18818;SDS011;9537;45.594;9.294;2024-02-14T04:54:20;13.03;;;8.47;;
18818;SDS011;9537;45.594;9.294;2024-02-14T04:55:21;16.00;;;9.43;;
18818;SDS011;9537;45.594;9.294;2024-02-14T04:56:23;14.40;;;9.03;;
18818;SDS011;9537;45.594;9.294;2024-02-14T04:57:25;12.07;;;8.57;;
18818;SDS011;9537;45.594;9.294;2024-02-14T04:58:26;14.77;;;8.60;;
18818;SDS011;9537;45.594;9.294;2024-02-14T04:59:27;15.60;;;9.13;;
18818;SDS011;9537;45.594;9.294;2024-02-14T05:00:29;13.07;;;9.47;;
18818;SDS011;9537;45.594;9.294;2024-02-14T05:01:29;12.87;;;8.73;;
18818;SDS011;9537;45.594;9.294;2024-02-14T05:02:31;13.43;;;8.70;;
18818;SDS011;9537;45.594;9.294;2024-02-14T05:03:32;14.07;;;9.30;;
18818;SDS011;9537;45.594;9.294;2024-02-14T05:04:33;15.87;;;8.90;;
18818;SDS011;9537;45.594;9.294;2024-02-14T05:05:38;15.73;;;9.00;;
18818;SDS011;9537;45.594;9.294;2024-02-14T05:06:38;13.37;;;9.17;;
18818;SDS011;9537;45.594;9.294;2024-02-14T05:07:42;13.67;;;9.10;;
18818;SDS011;9537;45.594;9.294;2024-02-14T05:08:42;14.63;;;9.87;;
18818;SDS011;9537;45.594;9.294;2024-02-14T05:09:44;13.00;;;9.13;;
18818;SDS011;9537;45.594;9.294;2024-02-14T05:10:45;16.47;;;9.63;;
18818;SDS011;9537;45.594;9.294;2024-02-14T05:11:47;12.30;;;8.50;;
18818;SDS011;9537;45.594;9.294;2024-02-14T05:12:49;15.17;;;9.53;;
18818;SDS011;9537;45.594;9.294;2024-02-14T05:13:51;13.03;;;8.77;;
18818;SDS011;9537;45.594;9.294;2024-02-14T05:14:52;14.00;;;9.13;;
18818;SDS011;9537;45.594;9.294;2024-02-14T05:15:54;13.47;;;8.53;;
18818;SDS011;9537;45.594;9.294;2024-02-14T05:16:56;14.00;;;8.47;;
18818;SDS011;9537;45.594;9.294;2024-02-14T05:18:01;13.50;;;8.83;;
18818;SDS011;9537;45.594;9.294;2024-02-14T05:19:02;12.50;;;8.57;;
18818;SDS011;9537;45.594;9.294;2024-02-14T05:20:04;12.80;;;8.50;;
18818;SDS011;9537;45.594;9.294;2024-02-14T05:21:09;15.70;;;7.70;;
18818;SDS011;9537;45.594;9.294;2024-02-14T05:22:11;11.73;;;8.47;;
18818;SDS011;9537;45.594;9.294;2024-02-14T05:23:11;14.13;;;8.73;;
18818;SDS011;9537;45.594;9.294;2024-02-14T05:24:13;15.07;;;9.10;;
18818;SDS011;9537;45.594;9.294;2024-02-14T05:25:14;12.13;;;8.40;;
18818;SDS011;9537;45.594;9.294;2024-02-14T05:26:16;11.13;;;7.83;;
18818;SDS011;9537;45.594;9.294;2024-02-14T05:27:17;12.93;;;8.43;;
18818;SDS011;9537;45.594;9.294;2024-02-14T05:28:19;11.57;;;8.70;;
18818;SDS011;9537;45.594;9.294;2024-02-14T05:29:21;11.03;;;8.53;;
18818;SDS011;9537;45.594;9.294;2024-02-14T05:30:22;12.47;;;8.13;;
18818;SDS011;9537;45.594;9.294;2024-02-14T05:31:24;9.90;;;7.80;;
18818;SDS011;9537;45.594;9.294;2024-02-14T05:32:42;11.67;;;8.33;;
18818;SDS011;9537;45.594;9.294;2024-02-14T05:33:44;14.53;;;8.37;;
18818;SDS011;9537;45.594;9.294;2024-02-14T05:34:44;14.57;;;8.80;;
18818;SDS011;9537;45.594;9.294;2024-02-14T05:35:46;13.27;;;9.20;;
18818;SDS011;9537;45.594;9.294;2024-02-14T05:36:47;13.90;;;8.23;;
18818;SDS011;9537;45.594;9.294;2024-02-14T05:37:49;12.27;;;8.30;;
18818;SDS011;9537;45.594;9.294;2024-02-14T05:38:51;11.53;;;8.90;;
18818;SDS011;9537;45.594;9.294;2024-02-14T05:39:53;16.07;;;8.87;;
18818;SDS011;9537;45.594;9.294;2024-02-14T05:40:54;12.97;;;9.00;;
18818;SDS011;9537;45.594;9.294;2024-02-14T05:41:55;11.83;;;8.20;;
18818;SDS011;9537;45.594;9.294;2024-02-14T05:42:56;12.87;;;8.13;;
18818;SDS011;9537;45.594;9.294;2024-02-14T05:43:59;16.70;;;8.87;;
18818;SDS011;9537;45.594;9.294;2024-02-14T05:45:00;12.03;;;7.73;;
18818;SDS011;9537;45.594;9.294;2024-02-14T05:46:03;12.77;;;8.63;;
18818;SDS011;9537;45.594;9.294;2024-02-14T05:47:04;13.33;;;8.23;;
18818;SDS011;9537;45.594;9.294;2024-02-14T05:48:05;12.80;;;8.40;;
18818;SDS011;9537;45.594;9.294;2024-02-14T05:49:07;16.47;;;9.07;;
18818;SDS011;9537;45.594;9.294;2024-02-14T05:50:09;11.43;;;8.80;;
18818;SDS011;9537;45.594;9.294;2024-02-14T05:51:11;15.30;;;8.97;;
18818;SDS011;9537;45.594;9.294;2024-02-14T05:52:12;15.47;;;8.03;;
18818;SDS011;9537;45.594;9.294;2024-02-14T05:53:15;13.27;;;8.03;;
18818;SDS011;9537;45.594;9.294;2024-02-14T05:54:16;13.33;;;8.07;;
18818;SDS011;9537;45.594;9.294;2024-02-14T05:55:18;10.47;;;7.43;;
18818;SDS011;9537;45.594;9.294;2024-02-14T05:56:19;12.73;;;7.50;;
18818;SDS011;9537;45.594;9.294;2024-02-14T05:57:19;14.97;;;7.17;;
18818;SDS011;9537;45.594;9.294;2024-02-14T05:58:21;12.23;;;7.70;;
18818;SDS011;9537;45.594;9.294;2024-02-14T05:59:23;12.23;;;8.20;;
18818;SDS011;9537;45.594;9.294;2024-02-14T06:00:25;11.00;;;6.87;;
18818;SDS011;9537;45.594;9.294;2024-02-14T06:01:26;9.20;;;6.97;;
18818;SDS011;9537;45.594;9.294;2024-02-14T06:02:28;10.33;;;7.13;;
18818;SDS011;9537;45.594;9.294;2024-02-14T06:03:29;10.73;;;7.63;;
18818;SDS011;9537;45.594;9.294;2024-02-14T06:04:31;11.07;;;7.03;;
18818;SDS011;9537;45.594;9.294;2024-02-14T06:05:32;13.17;;;7.57;;
18818;SDS011;9537;45.594;9.294;2024-02-14T06:06:33;10.67;;;7.23;;
18818;SDS011;9537;45.594;9.294;2024-02-14T06:07:34;11.17;;;8.17;;
18818;SDS011;9537;45.594;9.294;2024-02-14T06:08:36;11.53;;;7.13;;
18818;SDS011;9537;45.594;9.294;2024-02-14T06:09:37;12.67;;;8.80;;